sensor_id;sensor_type;location;lat;lon;timestamp;pressure;altitude;pressure_sealevel;temperature;humidity
40490;BME280;26196;52.302;10.572;2022-11-20T00:01:14;100362.09;;;6.85;50.29
40490;BME280;26196;52.302;10.572;2022-11-20T00:05:15;100302.78;;;6.50;50.36
40490;BME280;26196;52.302;10.572;2022-11-20T00:09:15;100342.28;;;6.75;50.68
40490;BME280;26196;52.302;10.572;2022-11-20T00:13:15;100301.03;;;6.50;50.29
40490;BME280;26196;52.302;10.572;2022-11-20T00:17:16;100298.41;;;6.53;50.25
40490;BME280;26196;52.302;10.572;2022-11-20T00:25:55;100318.19;;;6.64;50.22
40490;BME280;26196;52.302;10.572;2022-11-20T00:29:55;100313.00;;;6.64;50.27
40490;BME280;26196;52.302;10.572;2022-11-20T00:33:56;100346.69;;;6.73;50.19
40490;BME280;26196;52.302;10.572;2022-11-20T00:37:56;100348.38;;;6.75;50.64
40490;BME280;26196;52.302;10.572;2022-11-20T00:41:56;100326.88;;;6.63;50.39
40490;BME280;26196;52.302;10.572;2022-11-20T00:46:08;100338.88;;;6.73;50.47
40490;BME280;26196;52.302;10.572;2022-11-20T00:50:09;100302.75;;;6.51;50.45
40490;BME280;26196;52.302;10.572;2022-11-20T00:54:09;100286.44;;;6.40;50.38
40490;BME280;26196;52.302;10.572;2022-11-20T00:58:47;100337.16;;;6.72;50.31
40490;BME280;26196;52.302;10.572;2022-11-20T01:02:47;100302.72;;;6.54;50.45
40490;BME280;26196;52.302;10.572;2022-11-20T01:06:48;100321.69;;;6.61;50.24
40490;BME280;26196;52.302;10.572;2022-11-20T01:10:48;100277.91;;;6.32;50.50
40490;BME280;26196;52.302;10.572;2022-11-20T01:14:48;100266.69;;;6.27;50.73
40490;BME280;26196;52.302;10.572;2022-11-20T01:18:51;100289.03;;;6.42;50.50
40490;BME280;26196;52.302;10.572;2022-11-20T01:22:52;100241.72;;;6.17;50.46
40490;BME280;26196;52.302;10.572;2022-11-20T01:26:52;100313.09;;;6.57;50.64
40490;BME280;26196;52.302;10.572;2022-11-20T01:30:52;100316.53;;;6.58;50.41
40490;BME280;26196;52.302;10.572;2022-11-20T01:34:53;100297.53;;;6.54;50.28
40490;BME280;26196;52.302;10.572;2022-11-20T01:39:27;100307.75;;;6.67;50.45
40490;BME280;26196;52.302;10.572;2022-11-20T01:43:28;100281.13;;;6.49;50.23
40490;BME280;26196;52.302;10.572;2022-11-20T01:51:42;100275.91;;;6.51;50.59
40490;BME280;26196;52.302;10.572;2022-11-20T01:55:53;100297.38;;;6.64;50.38
40490;BME280;26196;52.302;10.572;2022-11-20T02:00:08;100263.84;;;6.47;50.35
40490;BME280;26196;52.302;10.572;2022-11-20T02:04:09;100279.28;;;6.56;50.32
40490;BME280;26196;52.302;10.572;2022-11-20T02:08:11;100260.34;;;6.46;49.99
40490;BME280;26196;52.302;10.572;2022-11-20T02:12:11;100250.84;;;6.45;49.85
40490;BME280;26196;52.302;10.572;2022-11-20T02:16:37;100278.28;;;6.65;50.19
40490;BME280;26196;52.302;10.572;2022-11-20T02:20:44;100245.69;;;6.42;50.63
40490;BME280;26196;52.302;10.572;2022-11-20T02:24:46;100264.53;;;6.60;50.03
40490;BME280;26196;52.302;10.572;2022-11-20T02:28:49;100231.09;;;6.32;50.47
40490;BME280;26196;52.302;10.572;2022-11-20T02:32:50;100199.25;;;6.18;50.49
40490;BME280;26196;52.302;10.572;2022-11-20T02:36:52;100224.22;;;6.29;50.38
40490;BME280;26196;52.302;10.572;2022-11-20T02:41:30;100273.19;;;6.58;50.40
40490;BME280;26196;52.302;10.572;2022-11-20T02:45:31;100264.53;;;6.58;50.50
40490;BME280;26196;52.302;10.572;2022-11-20T02:49:31;100264.59;;;6.53;50.82
40490;BME280;26196;52.302;10.572;2022-11-20T02:53:32;100222.50;;;6.28;50.41
40490;BME280;26196;52.302;10.572;2022-11-20T02:57:32;100260.25;;;6.54;50.92
40490;BME280;26196;52.302;10.572;2022-11-20T03:02:07;100265.38;;;6.58;50.52
40490;BME280;26196;52.302;10.572;2022-11-20T03:06:07;100241.34;;;6.43;50.29
40490;BME280;26196;52.302;10.572;2022-11-20T03:10:08;100185.44;;;6.12;50.52
40490;BME280;26196;52.302;10.572;2022-11-20T03:14:08;100242.16;;;6.46;50.53
40490;BME280;26196;52.302;10.572;2022-11-20T03:18:09;100207.81;;;6.26;50.69
40490;BME280;26196;52.302;10.572;2022-11-20T03:22:09;100115.78;;;5.77;50.73
40490;BME280;26196;52.302;10.572;2022-11-20T03:26:16;100249.88;;;6.52;50.71
40490;BME280;26196;52.302;10.572;2022-11-20T03:30:16;100224.13;;;6.35;50.32
40490;BME280;26196;52.302;10.572;2022-11-20T03:38:55;100250.69;;;6.56;50.43
40490;BME280;26196;52.302;10.572;2022-11-20T03:42:55;100215.44;;;6.37;50.23
40490;BME280;26196;52.302;10.572;2022-11-20T03:46:56;100208.50;;;6.37;50.56
40490;BME280;26196;52.302;10.572;2022-11-20T03:51:13;100235.97;;;6.55;50.36
40490;BME280;26196;52.302;10.572;2022-11-20T03:55:14;100169.06;;;6.07;50.61
40490;BME280;26196;52.302;10.572;2022-11-20T03:59:14;100214.50;;;6.42;50.33
40490;BME280;26196;52.302;10.572;2022-11-20T04:03:14;100191.16;;;6.36;50.27
40490;BME280;26196;52.302;10.572;2022-11-20T04:07:15;100206.69;;;6.42;50.66
40490;BME280;26196;52.302;10.572;2022-11-20T04:11:21;100077.94;;;5.61;50.69
40490;BME280;26196;52.302;10.572;2022-11-20T04:15:56;100225.59;;;6.53;50.57
40490;BME280;26196;52.302;10.572;2022-11-20T04:19:57;100211.84;;;6.45;50.71
40490;BME280;26196;52.302;10.572;2022-11-20T04:23:58;100166.25;;;6.24;50.37
40490;BME280;26196;52.302;10.572;2022-11-20T04:27:58;100185.97;;;6.38;50.74
40490;BME280;26196;52.302;10.572;2022-11-20T04:31:59;100185.22;;;6.29;50.32
40490;BME280;26196;52.302;10.572;2022-11-20T04:36:04;100205.00;;;6.38;50.43
40490;BME280;26196;52.302;10.572;2022-11-20T04:40:05;100197.16;;;6.41;50.31
40490;BME280;26196;52.302;10.572;2022-11-20T04:44:05;100201.47;;;6.44;50.34
40490;BME280;26196;52.302;10.572;2022-11-20T04:48:06;100180.94;;;6.27;50.27
40490;BME280;26196;52.302;10.572;2022-11-20T04:52:06;100147.47;;;6.04;50.31
40490;BME280;26196;52.302;10.572;2022-11-20T04:56:40;100205.75;;;6.46;50.17
40490;BME280;26196;52.302;10.572;2022-11-20T05:00:41;100172.25;;;6.28;50.35
40490;BME280;26196;52.302;10.572;2022-11-20T05:04:41;100184.38;;;6.29;50.13
40490;BME280;26196;52.302;10.572;2022-11-20T05:08:41;100183.53;;;6.27;50.28
40490;BME280;26196;52.302;10.572;2022-11-20T05:12:42;100204.03;;;6.45;50.03
40490;BME280;26196;52.302;10.572;2022-11-20T05:16:42;100185.22;;;6.31;50.02
40490;BME280;26196;52.302;10.572;2022-11-20T05:20:43;100125.06;;;5.98;50.09
40490;BME280;26196;52.302;10.572;2022-11-20T05:24:43;100126.69;;;6.05;49.86
40490;BME280;26196;52.302;10.572;2022-11-20T05:28:43;100135.22;;;6.13;49.83
40490;BME280;26196;52.302;10.572;2022-11-20T05:33:18;100197.94;;;6.48;50.04
40490;BME280;26196;52.302;10.572;2022-11-20T05:37:18;100181.56;;;6.41;49.82
40490;BME280;26196;52.302;10.572;2022-11-20T05:41:20;100173.84;;;6.37;49.81
40490;BME280;26196;52.302;10.572;2022-11-20T05:45:20;100151.38;;;6.34;50.04
40490;BME280;26196;52.302;10.572;2022-11-20T05:49:21;100142.78;;;6.29;50.49
40490;BME280;26196;52.302;10.572;2022-11-20T05:53:21;100105.06;;;6.02;50.28
40490;BME280;26196;52.302;10.572;2022-11-20T05:57:21;100137.81;;;6.12;50.11
40490;BME280;26196;52.302;10.572;2022-11-20T06:01:24;100139.53;;;6.14;49.79
40490;BME280;26196;52.302;10.572;2022-11-20T06:05:24;100157.53;;;6.27;49.99
40490;BME280;26196;52.302;10.572;2022-11-20T06:09:24;100089.66;;;5.89;49.91
40490;BME280;26196;52.302;10.572;2022-11-20T06:13:25;100109.34;;;6.04;50.10
40490;BME280;26196;52.302;10.572;2022-11-20T06:17:25;100101.59;;;6.03;50.22
40490;BME280;26196;52.302;10.572;2022-11-20T06:21:26;100124.78;;;6.17;50.52
40490;BME280;26196;52.302;10.572;2022-11-20T06:26:04;100165.00;;;6.48;50.51
40490;BME280;26196;52.302;10.572;2022-11-20T06:30:05;100112.66;;;6.16;50.62
40490;BME280;26196;52.302;10.572;2022-11-20T06:34:07;100158.16;;;6.43;50.36
40490;BME280;26196;52.302;10.572;2022-11-20T06:38:08;100132.34;;;6.32;50.80
40490;BME280;26196;52.302;10.572;2022-11-20T06:42:08;100134.09;;;6.31;50.68
40490;BME280;26196;52.302;10.572;2022-11-20T06:46:10;100145.28;;;6.35;50.79
40490;BME280;26196;52.302;10.572;2022-11-20T06:50:11;100156.41;;;6.45;50.81
40490;BME280;26196;52.302;10.572;2022-11-20T06:54:45;100161.50;;;6.51;51.18
40490;BME280;26196;52.302;10.572;2022-11-20T06:58:46;100136.56;;;6.39;51.09
40490;BME280;26196;52.302;10.572;2022-11-20T07:02:46;100153.69;;;6.52;50.78
40490;BME280;26196;52.302;10.572;2022-11-20T07:06:46;100132.16;;;6.41;51.32
40490;BME280;26196;52.302;10.572;2022-11-20T07:10:48;100124.47;;;6.35;51.43
40490;BME280;26196;52.302;10.572;2022-11-20T07:15:25;100157.13;;;6.54;51.04
40490;BME280;26196;52.302;10.572;2022-11-20T07:19:25;100146.00;;;6.45;51.19
40490;BME280;26196;52.302;10.572;2022-11-20T07:23:26;100145.94;;;6.48;51.29
40490;BME280;26196;52.302;10.572;2022-11-20T07:27:26;100096.91;;;6.25;51.46
40490;BME280;26196;52.302;10.572;2022-11-20T07:31:26;100115.03;;;6.31;51.33
40490;BME280;26196;52.302;10.572;2022-11-20T07:35:27;100123.63;;;6.34;51.38
40490;BME280;26196;52.302;10.572;2022-11-20T07:39:27;100139.03;;;6.47;51.62
40490;BME280;26196;52.302;10.572;2022-11-20T07:43:27;100093.56;;;6.18;51.10
40490;BME280;26196;52.302;10.572;2022-11-20T07:47:28;100138.22;;;6.43;51.65
40490;BME280;26196;52.302;10.572;2022-11-20T07:51:28;100149.25;;;6.57;51.72
40490;BME280;26196;52.302;10.572;2022-11-20T07:56:03;100148.31;;;6.62;51.96
40490;BME280;26196;52.302;10.572;2022-11-20T08:00:05;100131.97;;;6.53;52.03
40490;BME280;26196;52.302;10.572;2022-11-20T08:04:07;100153.44;;;6.65;51.90
40490;BME280;26196;52.302;10.572;2022-11-20T08:08:07;100151.75;;;6.64;51.77
40490;BME280;26196;52.302;10.572;2022-11-20T08:12:46;100142.13;;;6.67;51.82
40490;BME280;26196;52.302;10.572;2022-11-20T08:17:05;100122.41;;;6.57;51.71
40490;BME280;26196;52.302;10.572;2022-11-20T08:21:40;100149.94;;;6.67;51.92
40490;BME280;26196;52.302;10.572;2022-11-20T08:25:40;100123.31;;;6.53;52.01
40490;BME280;26196;52.302;10.572;2022-11-20T08:30:15;100158.63;;;6.68;51.98
40490;BME280;26196;52.302;10.572;2022-11-20T08:34:15;100147.53;;;6.56;51.97
40490;BME280;26196;52.302;10.572;2022-11-20T08:38:53;100152.53;;;6.67;51.72
40490;BME280;26196;52.302;10.572;2022-11-20T08:42:54;100155.13;;;6.69;51.93
40490;BME280;26196;52.302;10.572;2022-11-20T08:47:31;100154.22;;;6.70;51.96
40490;BME280;26196;52.302;10.572;2022-11-20T08:51:32;100137.09;;;6.58;52.19
40490;BME280;26196;52.302;10.572;2022-11-20T08:55:32;100149.88;;;6.72;52.23
40490;BME280;26196;52.302;10.572;2022-11-20T08:59:35;100145.63;;;6.68;52.35
40490;BME280;26196;52.302;10.572;2022-11-20T09:03:35;100121.44;;;6.61;52.32
40490;BME280;26196;52.302;10.572;2022-11-20T09:07:36;100122.28;;;6.63;52.87
40490;BME280;26196;52.302;10.572;2022-11-20T09:12:13;100143.69;;;6.79;52.75
40490;BME280;26196;52.302;10.572;2022-11-20T09:16:14;100130.81;;;6.70;53.20
40490;BME280;26196;52.302;10.572;2022-11-20T09:20:14;100135.09;;;6.75;52.51
40490;BME280;26196;52.302;10.572;2022-11-20T09:24:16;100129.75;;;6.83;53.32
40490;BME280;26196;52.302;10.572;2022-11-20T09:28:16;100127.19;;;6.80;53.17
40490;BME280;26196;52.302;10.572;2022-11-20T09:32:18;100049.81;;;6.43;53.33
40490;BME280;26196;52.302;10.572;2022-11-20T09:37:45;100122.78;;;15.46;46.26
40490;BME280;26196;52.302;10.572;2022-11-20T09:44:41;100138.84;;;9.00;47.56
40490;BME280;26196;52.302;10.572;2022-11-20T09:57:23;100129.78;;;7.27;51.92
40490;BME280;26196;52.302;10.572;2022-11-20T10:01:34;100120.41;;;7.18;52.71
40490;BME280;26196;52.302;10.572;2022-11-20T10:05:47;100120.41;;;7.18;52.50
40490;BME280;26196;52.302;10.572;2022-11-20T10:09:54;100108.16;;;7.23;53.42
40490;BME280;26196;52.302;10.572;2022-11-20T10:14:16;100112.53;;;7.21;52.70
40490;BME280;26196;52.302;10.572;2022-11-20T10:31:12;100115.16;;;7.21;53.24
40490;BME280;26196;52.302;10.572;2022-11-20T10:39:50;100102.97;;;7.23;53.25
40490;BME280;26196;52.302;10.572;2022-11-20T10:44:21;100105.50;;;7.26;53.60
40490;BME280;26196;52.302;10.572;2022-11-20T10:48:43;100107.19;;;7.27;53.08
40490;BME280;26196;52.302;10.572;2022-11-20T10:57:41;100095.88;;;7.30;53.43
40490;BME280;26196;52.302;10.572;2022-11-20T11:01:46;100090.66;;;7.31;53.67
40490;BME280;26196;52.302;10.572;2022-11-20T11:05:50;100094.91;;;7.35;53.84
40490;BME280;26196;52.302;10.572;2022-11-20T11:09:53;100088.81;;;7.36;53.72
40490;BME280;26196;52.302;10.572;2022-11-20T11:14:12;100094.84;;;7.38;53.83
40490;BME280;26196;52.302;10.572;2022-11-20T11:18:29;100099.25;;;7.35;53.84
40490;BME280;26196;52.302;10.572;2022-11-20T11:22:32;100087.13;;;7.34;53.76
40490;BME280;26196;52.302;10.572;2022-11-20T11:26:33;100084.44;;;7.37;53.73
40490;BME280;26196;52.302;10.572;2022-11-20T11:30:44;100075.72;;;7.39;54.26
40490;BME280;26196;52.302;10.572;2022-11-20T11:34:44;100073.97;;;7.40;53.87
40490;BME280;26196;52.302;10.572;2022-11-20T11:38:45;100069.63;;;7.40;53.68
40490;BME280;26196;52.302;10.572;2022-11-20T11:42:57;100076.56;;;7.41;53.93
40490;BME280;26196;52.302;10.572;2022-11-20T11:46:59;100066.97;;;7.42;54.39
40490;BME280;26196;52.302;10.572;2022-11-20T11:51:00;100065.97;;;7.49;54.36
40490;BME280;26196;52.302;10.572;2022-11-20T11:55:03;100067.75;;;7.45;53.72
40490;BME280;26196;52.302;10.572;2022-11-20T11:59:06;100074.78;;;7.42;53.67
40490;BME280;26196;52.302;10.572;2022-11-20T12:03:20;100055.75;;;7.40;54.09
40490;BME280;26196;52.302;10.572;2022-11-20T12:07:38;100058.41;;;7.38;53.88
40490;BME280;26196;52.302;10.572;2022-11-20T12:11:51;100053.72;;;7.54;54.05
40490;BME280;26196;52.302;10.572;2022-11-20T12:15:54;100051.59;;;7.72;54.58
40490;BME280;26196;52.302;10.572;2022-11-20T12:19:55;100053.94;;;7.82;54.32
40490;BME280;26196;52.302;10.572;2022-11-20T12:24:23;100052.00;;;7.91;53.96
40490;BME280;26196;52.302;10.572;2022-11-20T12:28:36;100049.31;;;7.95;54.32
40490;BME280;26196;52.302;10.572;2022-11-20T12:46:22;100042.91;;;8.08;54.29
40490;BME280;26196;52.302;10.572;2022-11-20T12:54:48;100039.28;;;8.14;53.84
40490;BME280;26196;52.302;10.572;2022-11-20T13:03:44;100035.22;;;8.02;53.61
40490;BME280;26196;52.302;10.572;2022-11-20T13:07:52;100027.53;;;7.98;53.90
40490;BME280;26196;52.302;10.572;2022-11-20T13:12:04;100031.72;;;8.03;53.90
40490;BME280;26196;52.302;10.572;2022-11-20T13:20:30;100026.53;;;8.03;54.48
40490;BME280;26196;52.302;10.572;2022-11-20T13:24:33;100024.72;;;8.05;54.14
40490;BME280;26196;52.302;10.572;2022-11-20T13:28:33;100023.84;;;8.05;54.30
40490;BME280;26196;52.302;10.572;2022-11-20T13:32:34;100015.09;;;8.07;54.46
40490;BME280;26196;52.302;10.572;2022-11-20T13:36:35;100011.66;;;8.07;54.33
40490;BME280;26196;52.302;10.572;2022-11-20T13:40:58;100013.34;;;8.08;54.65
40490;BME280;26196;52.302;10.572;2022-11-20T13:45:02;100023.78;;;8.08;54.54
40490;BME280;26196;52.302;10.572;2022-11-20T13:49:21;100008.94;;;8.11;55.00
40490;BME280;26196;52.302;10.572;2022-11-20T13:53:47;100015.75;;;8.17;54.69
40490;BME280;26196;52.302;10.572;2022-11-20T14:03:40;100008.81;;;8.16;54.94
40490;BME280;26196;52.302;10.572;2022-11-20T14:07:25;100000.94;;;8.18;54.90
40490;BME280;26196;52.302;10.572;2022-11-20T14:11:28;100000.91;;;8.19;55.06
40490;BME280;26196;52.302;10.572;2022-11-20T14:15:31;99999.16;;;8.20;53.99
40490;BME280;26196;52.302;10.572;2022-11-20T14:19:33;100001.00;;;8.16;54.82
40490;BME280;26196;52.302;10.572;2022-11-20T14:23:34;99995.78;;;8.16;54.36
40490;BME280;26196;52.302;10.572;2022-11-20T14:27:36;99996.47;;;8.23;54.90
40490;BME280;26196;52.302;10.572;2022-11-20T14:31:37;99992.09;;;8.25;54.46
40490;BME280;26196;52.302;10.572;2022-11-20T14:35:46;99999.13;;;8.21;54.35
40490;BME280;26196;52.302;10.572;2022-11-20T14:39:53;99997.31;;;8.23;54.50
40490;BME280;26196;52.302;10.572;2022-11-20T14:43:59;99998.16;;;8.25;54.74
40490;BME280;26196;52.302;10.572;2022-11-20T14:47:59;99990.13;;;8.33;54.25
40490;BME280;26196;52.302;10.572;2022-11-20T14:52:24;99988.47;;;8.29;53.80
40490;BME280;26196;52.302;10.572;2022-11-20T14:56:24;99992.91;;;8.27;53.94
40490;BME280;26196;52.302;10.572;2022-11-20T15:00:25;99979.78;;;8.30;54.57
40490;BME280;26196;52.302;10.572;2022-11-20T15:04:26;99968.53;;;8.28;54.04
40490;BME280;26196;52.302;10.572;2022-11-20T15:08:26;99966.69;;;8.31;54.22
40490;BME280;26196;52.302;10.572;2022-11-20T15:12:27;99973.66;;;8.31;54.20
40490;BME280;26196;52.302;10.572;2022-11-20T15:16:29;99964.03;;;8.35;54.02
40490;BME280;26196;52.302;10.572;2022-11-20T15:20:31;99958.84;;;8.33;54.01
40490;BME280;26196;52.302;10.572;2022-11-20T15:24:33;99963.16;;;8.34;54.61
40490;BME280;26196;52.302;10.572;2022-11-20T15:28:35;99948.38;;;8.35;54.53
40490;BME280;26196;52.302;10.572;2022-11-20T15:32:37;99954.38;;;8.37;54.25
40490;BME280;26196;52.302;10.572;2022-11-20T15:36:38;99944.09;;;8.32;54.38
40490;BME280;26196;52.302;10.572;2022-11-20T15:40:38;99943.91;;;8.38;54.57
40490;BME280;26196;52.302;10.572;2022-11-20T15:44:39;99940.38;;;8.42;55.09
40490;BME280;26196;52.302;10.572;2022-11-20T15:48:44;99936.03;;;8.41;54.21
40490;BME280;26196;52.302;10.572;2022-11-20T15:52:45;99931.75;;;8.40;54.18
40490;BME280;26196;52.302;10.572;2022-11-20T15:56:47;99936.88;;;8.42;54.09
40490;BME280;26196;52.302;10.572;2022-11-20T16:00:48;99936.00;;;8.43;54.29
40490;BME280;26196;52.302;10.572;2022-11-20T16:04:48;99928.91;;;8.48;54.57
40490;BME280;26196;52.302;10.572;2022-11-20T16:08:49;99926.25;;;8.49;54.23
40490;BME280;26196;52.302;10.572;2022-11-20T16:12:49;99924.44;;;8.53;54.38
40490;BME280;26196;52.302;10.572;2022-11-20T16:17:08;99924.25;;;8.59;53.72
40490;BME280;26196;52.302;10.572;2022-11-20T16:21:11;99922.44;;;8.61;54.01
40490;BME280;26196;52.302;10.572;2022-11-20T16:25:14;99917.19;;;8.63;54.44
40490;BME280;26196;52.302;10.572;2022-11-20T16:29:15;99921.44;;;8.65;53.79
40490;BME280;26196;52.302;10.572;2022-11-20T16:33:16;99909.22;;;8.67;53.63
40490;BME280;26196;52.302;10.572;2022-11-20T16:37:17;99905.72;;;8.68;53.92
40490;BME280;26196;52.302;10.572;2022-11-20T16:41:17;99906.53;;;8.70;53.13
40490;BME280;26196;52.302;10.572;2022-11-20T16:45:17;99903.84;;;8.73;53.83
40490;BME280;26196;52.302;10.572;2022-11-20T16:49:18;99902.97;;;8.73;52.90
40490;BME280;26196;52.302;10.572;2022-11-20T16:53:20;99895.19;;;8.71;52.88
40490;BME280;26196;52.302;10.572;2022-11-20T16:57:20;99890.84;;;8.72;53.08
40490;BME280;26196;52.302;10.572;2022-11-20T17:01:22;99889.06;;;8.72;52.93
40490;BME280;26196;52.302;10.572;2022-11-20T17:05:23;99885.72;;;8.69;53.38
40490;BME280;26196;52.302;10.572;2022-11-20T17:09:23;99889.13;;;8.71;53.76
40490;BME280;26196;52.302;10.572;2022-11-20T17:13:24;99881.31;;;8.71;53.03
40490;BME280;26196;52.302;10.572;2022-11-20T17:17:24;99883.94;;;8.69;52.81
40490;BME280;26196;52.302;10.572;2022-11-20T17:21:25;99875.38;;;8.66;53.13
40490;BME280;26196;52.302;10.572;2022-11-20T17:25:25;99871.84;;;8.67;53.26
40490;BME280;26196;52.302;10.572;2022-11-20T17:29:26;99868.28;;;8.69;52.63
40490;BME280;26196;52.302;10.572;2022-11-20T17:33:27;99870.06;;;8.69;53.19
40490;BME280;26196;52.302;10.572;2022-11-20T17:37:27;99867.44;;;8.69;53.40
40490;BME280;26196;52.302;10.572;2022-11-20T17:41:28;99872.69;;;8.67;52.92
40490;BME280;26196;52.302;10.572;2022-11-20T17:45:29;99865.69;;;8.69;52.75
40490;BME280;26196;52.302;10.572;2022-11-20T17:49:29;99868.28;;;8.69;52.86
40490;BME280;26196;52.302;10.572;2022-11-20T17:53:35;99877.03;;;8.68;52.57
40490;BME280;26196;52.302;10.572;2022-11-20T17:57:35;99870.06;;;8.69;52.07
40490;BME280;26196;52.302;10.572;2022-11-20T18:01:56;99868.25;;;8.71;51.43
40490;BME280;26196;52.302;10.572;2022-11-20T18:05:56;99856.94;;;8.70;51.51
40490;BME280;26196;52.302;10.572;2022-11-20T18:09:56;99863.81;;;8.73;51.92
40490;BME280;26196;52.302;10.572;2022-11-20T18:13:57;99853.38;;;8.73;51.92
40490;BME280;26196;52.302;10.572;2022-11-20T18:18:17;99856.94;;;8.70;52.12
40490;BME280;26196;52.302;10.572;2022-11-20T18:22:18;99846.69;;;8.64;52.14
40490;BME280;26196;52.302;10.572;2022-11-20T18:26:18;99844.06;;;8.66;51.94
40490;BME280;26196;52.302;10.572;2022-11-20T18:30:19;99841.53;;;8.63;51.98
40490;BME280;26196;52.302;10.572;2022-11-20T18:34:19;99842.41;;;8.63;51.97
40490;BME280;26196;52.302;10.572;2022-11-20T18:38:20;99833.69;;;8.63;51.13
40490;BME280;26196;52.302;10.572;2022-11-20T18:42:20;99822.41;;;8.62;51.31
40490;BME280;26196;52.302;10.572;2022-11-20T18:46:39;99823.22;;;8.64;51.15
40490;BME280;26196;52.302;10.572;2022-11-20T18:50:39;99817.09;;;8.65;50.72
40490;BME280;26196;52.302;10.572;2022-11-20T18:54:39;99802.34;;;8.64;50.85
40490;BME280;26196;52.302;10.572;2022-11-20T18:58:40;99792.66;;;8.68;50.92
40490;BME280;26196;52.302;10.572;2022-11-20T19:02:41;99789.22;;;8.67;50.42
40490;BME280;26196;52.302;10.572;2022-11-20T19:06:42;99790.97;;;8.67;50.78
40490;BME280;26196;52.302;10.572;2022-11-20T19:10:43;99778.88;;;8.64;50.01
40490;BME280;26196;52.302;10.572;2022-11-20T19:14:43;99772.91;;;8.61;51.20
40490;BME280;26196;52.302;10.572;2022-11-20T19:18:44;99771.19;;;8.60;50.68
40490;BME280;26196;52.302;10.572;2022-11-20T19:22:49;99765.97;;;8.60;51.29
40490;BME280;26196;52.302;10.572;2022-11-20T19:26:49;99769.50;;;8.59;50.71
40490;BME280;26196;52.302;10.572;2022-11-20T19:30:50;99755.78;;;8.52;50.67
40490;BME280;26196;52.302;10.572;2022-11-20T19:34:50;99753.13;;;8.53;50.93
40490;BME280;26196;52.302;10.572;2022-11-20T19:38:51;99753.88;;;8.57;50.58
40490;BME280;26196;52.302;10.572;2022-11-20T19:42:52;99757.41;;;8.56;50.93
40490;BME280;26196;52.302;10.572;2022-11-20T19:46:52;99746.25;;;8.51;50.97
40490;BME280;26196;52.302;10.572;2022-11-20T19:50:52;99743.69;;;8.49;50.85
40490;BME280;26196;52.302;10.572;2022-11-20T19:54:53;99739.34;;;8.50;50.42
40490;BME280;26196;52.302;10.572;2022-11-20T19:58:54;99745.41;;;8.50;50.64
40490;BME280;26196;52.302;10.572;2022-11-20T20:02:54;99730.59;;;8.51;50.19
40490;BME280;26196;52.302;10.572;2022-11-20T20:06:55;99734.81;;;8.55;50.17
40490;BME280;26196;52.302;10.572;2022-11-20T20:10:55;99734.88;;;8.53;50.19
40490;BME280;26196;52.302;10.572;2022-11-20T20:14:56;99731.25;;;8.58;50.38
40490;BME280;26196;52.302;10.572;2022-11-20T20:18:58;99719.97;;;8.57;50.51
40490;BME280;26196;52.302;10.572;2022-11-20T20:23:00;99713.78;;;8.60;49.74
40490;BME280;26196;52.302;10.572;2022-11-20T20:27:01;99708.78;;;8.53;50.03
40490;BME280;26196;52.302;10.572;2022-11-20T20:31:11;99711.63;;;8.46;50.46
40490;BME280;26196;52.302;10.572;2022-11-20T20:35:11;99707.94;;;8.53;50.84
40490;BME280;26196;52.302;10.572;2022-11-20T20:39:11;99698.16;;;8.60;50.26
40490;BME280;26196;52.302;10.572;2022-11-20T20:43:12;99699.78;;;8.64;50.30
40490;BME280;26196;52.302;10.572;2022-11-20T20:47:12;99689.19;;;8.68;50.03
40490;BME280;26196;52.302;10.572;2022-11-20T20:51:13;99694.56;;;8.64;49.69
40490;BME280;26196;52.302;10.572;2022-11-20T20:55:13;99692.75;;;8.66;50.17
40490;BME280;26196;52.302;10.572;2022-11-20T20:59:14;99691.81;;;8.68;49.95
40490;BME280;26196;52.302;10.572;2022-11-20T21:03:14;99686.66;;;8.65;49.83
40490;BME280;26196;52.302;10.572;2022-11-20T21:07:15;99687.56;;;8.64;49.60
40490;BME280;26196;52.302;10.572;2022-11-20T21:11:17;99683.34;;;8.60;49.66
40490;BME280;26196;52.302;10.572;2022-11-20T21:15:18;99666.97;;;8.55;49.57
40490;BME280;26196;52.302;10.572;2022-11-20T21:19:18;99652.41;;;8.49;50.37
40490;BME280;26196;52.302;10.572;2022-11-20T21:23:18;99644.56;;;8.49;50.18
40490;BME280;26196;52.302;10.572;2022-11-20T21:27:19;99630.78;;;8.46;50.06
40490;BME280;26196;52.302;10.572;2022-11-20T21:31:21;99620.34;;;8.46;49.89
40490;BME280;26196;52.302;10.572;2022-11-20T21:35:22;99612.63;;;8.43;49.98
40490;BME280;26196;52.302;10.572;2022-11-20T21:39:22;99602.22;;;8.43;49.75
40490;BME280;26196;52.302;10.572;2022-11-20T21:43:23;99604.03;;;8.39;49.80
40490;BME280;26196;52.302;10.572;2022-11-20T21:47:23;99598.78;;;8.41;50.37
40490;BME280;26196;52.302;10.572;2022-11-20T21:51:26;99587.50;;;8.40;50.42
40490;BME280;26196;52.302;10.572;2022-11-20T21:55:26;99581.34;;;8.43;50.15
40490;BME280;26196;52.302;10.572;2022-11-20T21:59:26;99583.16;;;8.41;50.09
40490;BME280;26196;52.302;10.572;2022-11-20T22:03:27;99566.72;;;8.37;50.27
40490;BME280;26196;52.302;10.572;2022-11-20T22:07:28;99565.84;;;8.37;50.49
40490;BME280;26196;52.302;10.572;2022-11-20T22:11:28;99558.00;;;8.38;50.04
40490;BME280;26196;52.302;10.572;2022-11-20T22:15:28;99543.44;;;8.31;50.41
40490;BME280;26196;52.302;10.572;2022-11-20T22:19:29;99553.69;;;8.37;50.25
40490;BME280;26196;52.302;10.572;2022-11-20T22:23:29;99545.88;;;8.37;50.14
40490;BME280;26196;52.302;10.572;2022-11-20T22:27:29;99543.19;;;8.39;50.31
40490;BME280;26196;52.302;10.572;2022-11-20T22:31:30;99547.56;;;8.40;50.30
40490;BME280;26196;52.302;10.572;2022-11-20T22:35:31;99545.81;;;8.39;49.95
40490;BME280;26196;52.302;10.572;2022-11-20T22:39:31;99551.00;;;8.40;50.29
40490;BME280;26196;52.302;10.572;2022-11-20T22:43:32;99540.50;;;8.42;50.05
40490;BME280;26196;52.302;10.572;2022-11-20T22:47:32;99539.72;;;8.40;50.70